Paganini — V2CL8 — position and weather

sailwx.info

Track history (hours):
 
Tides and Currents Weather Stations Pressure Air Temp Water Temp Dewpoint Dewpoint Depression Visibility Wind Speed Wind Dir Waves Ship Positions

Paganini

Last reported at 2014-Aug-22 10:33 UTC. Time now 2014-Aug-28 13:23 UTC.
Position N 48°08' W 005°45'.

Length 90 m; draft 6 m.

Type: Ship. MMSI: 305040000.

Date/timePositionNaut miles runAvg speedWind from/ knotsBaromVisibWave heightAir tempDewpointWater temp
2014-Aug-22 10:33N 48°08' W 005°45'8 8.3
2014-Aug-22 09:33N 48°16' W 005°49'269 7.9
2014-Aug-20 23:23N 50°34' E 000°07'8 9.9
2014-Aug-20 22:33N 50°36' E 000°19'10 9.7
2014-Aug-20 21:33N 50°39' E 000°34'9 9.3
2014-Aug-20 20:33N 50°44' E 000°46'9 8.5
2014-Aug-20 19:33N 50°49' E 000°57'16 8.2
2014-Aug-20 17:33N 50°59' E 001°17'10 9.9
2014-Aug-20 16:34N 51°05' E 001°29'1111.3
2014-Aug-20 15:34N 51°13' E 001°43'1110.5
2014-Aug-20 14:33N 51°22' E 001°51'10 9.8
2014-Aug-20 13:33N 51°30' E 001°60'9 9.0
2014-Aug-20 12:33N 51°37' E 002°09'11 8.4
2014-Aug-20 11:15N 51°45' E 002°21'53 7.8
2014-Aug-20 04:31N 52°03' E 003°41'8 8.2
2014-Aug-20 03:34N 52°02' E 003°54'8 8.1
2014-Aug-20 02:33N 51°59' E 004°06'1110.6
2014-Aug-20 01:33N 51°52' E 004°20'8 8.3
2014-Aug-20 00:34N 51°50' E 004°33'6 6.4
2014-Aug-19 23:33N 51°44' E 004°38'3 3.0
2014-Aug-19 22:28N 51°41' E 004°36'0 0.0
2014-Aug-19 21:31N 51°41' E 004°36'0 0.0
2014-Aug-19 20:28N 51°41' E 004°36'0 0.0
2014-Aug-19 19:28N 51°41' E 004°36'0 0.0
2014-Aug-19 18:22N 51°41' E 004°36'0 0.0
2014-Aug-19 17:31N 51°41' E 004°36'0 0.0
2014-Aug-19 16:31N 51°41' E 004°36'0 0.0
2014-Aug-19 15:28N 51°41' E 004°36'0 0.0
2014-Aug-19 14:13N 51°41' E 004°36'0 0.0
2014-Aug-19 13:22N 51°41' E 004°36'0 0.0
2014-Aug-19 12:28N 51°41' E 004°36'0 0.0
2014-Aug-19 11:31N 51°41' E 004°36'0 0.0
2014-Aug-19 10:25N 51°41' E 004°36'0 0.0
2014-Aug-19 09:22N 51°41' E 004°36'0 0.0
2014-Aug-19 08:25N 51°41' E 004°36'0 0.0
2014-Aug-19 07:25N 51°41' E 004°36'0 0.0
2014-Aug-19 06:31N 51°41' E 004°36'0 0.0
2014-Aug-19 05:31N 51°41' E 004°36'0 0.0
2014-Aug-19 04:31N 51°41' E 004°36'0 0.0
2014-Aug-19 03:31N 51°41' E 004°36'0 0.0
2014-Aug-19 02:31N 51°41' E 004°36'0 0.0
2014-Aug-19 01:31N 51°41' E 004°36'0 0.0
2014-Aug-19 00:22N 51°41' E 004°36'0 0.0
2014-Aug-18 23:28N 51°41' E 004°36'0 0.0
2014-Aug-18 22:31N 51°41' E 004°36'0 0.0
2014-Aug-18 21:28N 51°41' E 004°36'0 0.0
2014-Aug-18 20:31N 51°41' E 004°36'0 0.1
2014-Aug-18 19:33N 51°41' E 004°36'6 5.6
2014-Aug-18 18:33N 51°47' E 004°38'8 8.2
2014-Aug-18 17:33N 51°50' E 004°26'4 3.8
2014-Aug-18 16:33N 51°54' E 004°23'1 1.1
2014-Aug-18 15:34N 51°55' E 004°25'0 0.0
2014-Aug-18 14:34N 51°55' E 004°25'0 0.0
2014-Aug-18 13:34N 51°55' E 004°25'0 0.0
2014-Aug-18 12:34N 51°55' E 004°25'0 0.0
2014-Aug-18 11:34N 51°55' E 004°25'0 0.0
2014-Aug-18 10:34N 51°55' E 004°25'0 0.0
2014-Aug-18 09:34N 51°55' E 004°25'0 0.0
2014-Aug-18 08:34N 51°55' E 004°25'0 0.0
2014-Aug-18 07:34N 51°55' E 004°25'0 0.0
2014-Aug-18 06:34N 51°55' E 004°25'0 0.0
2014-Aug-18 05:31N 51°55' E 004°25'0 0.0
2014-Aug-18 04:34N 51°55' E 004°25'0 0.0
2014-Aug-18 03:34N 51°55' E 004°25'0 0.0
2014-Aug-18 02:28N 51°55' E 004°25'0 0.0
2014-Aug-18 01:34N 51°55' E 004°25'0 0.0
2014-Aug-18 00:34N 51°55' E 004°25'0 0.0
2014-Aug-17 18:28N 51°55' E 004°25'0 0.0
2014-Aug-17 17:34N 51°55' E 004°25'0 0.0
2014-Aug-17 16:34N 51°55' E 004°25'0 0.0
2014-Aug-17 15:34N 51°55' E 004°25'0 0.0
2014-Aug-17 14:34N 51°55' E 004°25'0 0.0
2014-Aug-17 13:34N 51°55' E 004°25'0 0.0
2014-Aug-17 12:34N 51°55' E 004°25'0 0.0
2014-Aug-17 11:34N 51°55' E 004°25'0 0.0
2014-Aug-17 10:34N 51°55' E 004°25'0 0.0
2014-Aug-17 09:31N 51°55' E 004°25'0 0.0
2014-Aug-17 08:34N 51°55' E 004°25'0 0.0
2014-Aug-17 07:34N 51°55' E 004°25'0 0.0
2014-Aug-17 06:31N 51°55' E 004°25'0 0.0
2014-Aug-17 05:34N 51°55' E 004°25'0 0.0
2014-Aug-17 04:31N 51°55' E 004°25'0 0.0
2014-Aug-17 03:25N 51°55' E 004°25'0 0.0
2014-Aug-17 02:31N 51°55' E 004°25'0 0.0
2014-Aug-17 01:34N 51°55' E 004°25'0 0.0
2014-Aug-17 00:34N 51°55' E 004°25'0 0.0
2014-Aug-16 23:34N 51°55' E 004°25'0 0.0
2014-Aug-16 22:34N 51°55' E 004°25'1 1.1
2014-Aug-16 21:33N 51°54' E 004°24'8 8.2
2014-Aug-16 20:33N 51°57' E 004°11'10 9.5
2014-Aug-16 19:33N 52°00' E 003°57'5810.6
2014-Aug-16 14:04N 51°39' E 002°29'5 9.1
2014-Aug-16 13:33N 51°35' E 002°24'8 8.4
2014-Aug-16 12:33N 51°29' E 002°16'8 8.1
2014-Aug-16 11:32N 51°22' E 002°09'8 8.1
2014-Aug-16 10:33N 51°15' E 002°04'8 8.5
2014-Aug-16 09:33N 51°10' E 001°53'9 8.8
2014-Aug-16 08:33N 51°04' E 001°43'38 9.1
2014-Aug-16 04:19N 50°32' E 001°08'7 9.3
2014-Aug-16 03:33N 50°28' E 000°59'9 9.3
2014-Aug-16 02:33N 50°25' E 000°45'10 9.8
2014-Aug-16 01:33N 50°23' E 000°30'  
Track history (hours):
 
Tides and Currents Weather Stations Pressure Air Temp Water Temp Dewpoint Dewpoint Depression Visibility Wind Speed Wind Dir Waves Ship Positions

Paganini

Last reported at 2014-Aug-22 10:33 UTC. Time now 2014-Aug-28 13:23 UTC.
Position N 48°08' W 005°45'.

Length 90 m; draft 6 m.

Type: Ship. MMSI: 305040000.

Date/timePositionNaut miles runAvg speedWind from/ knotsBaromVisibWave heightAir tempDewpointWater temp
2014-Aug-22 10:33N 48°08' W 005°45'8 8.3
2014-Aug-22 09:33N 48°16' W 005°49'269 7.9
2014-Aug-20 23:23N 50°34' E 000°07'8 9.9
2014-Aug-20 22:33N 50°36' E 000°19'10 9.7
2014-Aug-20 21:33N 50°39' E 000°34'9 9.3
2014-Aug-20 20:33N 50°44' E 000°46'9 8.5
2014-Aug-20 19:33N 50°49' E 000°57'16 8.2
2014-Aug-20 17:33N 50°59' E 001°17'10 9.9
2014-Aug-20 16:34N 51°05' E 001°29'1111.3
2014-Aug-20 15:34N 51°13' E 001°43'1110.5
2014-Aug-20 14:33N 51°22' E 001°51'10 9.8
2014-Aug-20 13:33N 51°30' E 001°60'9 9.0
2014-Aug-20 12:33N 51°37' E 002°09'11 8.4
2014-Aug-20 11:15N 51°45' E 002°21'53 7.8
2014-Aug-20 04:31N 52°03' E 003°41'8 8.2
2014-Aug-20 03:34N 52°02' E 003°54'8 8.1
2014-Aug-20 02:33N 51°59' E 004°06'1110.6
2014-Aug-20 01:33N 51°52' E 004°20'8 8.3
2014-Aug-20 00:34N 51°50' E 004°33'6 6.4
2014-Aug-19 23:33N 51°44' E 004°38'3 3.0
2014-Aug-19 22:28N 51°41' E 004°36'0 0.0
2014-Aug-19 21:31N 51°41' E 004°36'0 0.0
2014-Aug-19 20:28N 51°41' E 004°36'0 0.0
2014-Aug-19 19:28N 51°41' E 004°36'0 0.0
2014-Aug-19 18:22N 51°41' E 004°36'0 0.0
2014-Aug-19 17:31N 51°41' E 004°36'0 0.0
2014-Aug-19 16:31N 51°41' E 004°36'0 0.0
2014-Aug-19 15:28N 51°41' E 004°36'0 0.0
2014-Aug-19 14:13N 51°41' E 004°36'0 0.0
2014-Aug-19 13:22N 51°41' E 004°36'0 0.0
2014-Aug-19 12:28N 51°41' E 004°36'0 0.0
2014-Aug-19 11:31N 51°41' E 004°36'0 0.0
2014-Aug-19 10:25N 51°41' E 004°36'0 0.0
2014-Aug-19 09:22N 51°41' E 004°36'0 0.0
2014-Aug-19 08:25N 51°41' E 004°36'0 0.0
2014-Aug-19 07:25N 51°41' E 004°36'0 0.0
2014-Aug-19 06:31N 51°41' E 004°36'0 0.0
2014-Aug-19 05:31N 51°41' E 004°36'0 0.0
2014-Aug-19 04:31N 51°41' E 004°36'0 0.0
2014-Aug-19 03:31N 51°41' E 004°36'0 0.0
2014-Aug-19 02:31N 51°41' E 004°36'0 0.0
2014-Aug-19 01:31N 51°41' E 004°36'0 0.0
2014-Aug-19 00:22N 51°41' E 004°36'0 0.0
2014-Aug-18 23:28N 51°41' E 004°36'0 0.0
2014-Aug-18 22:31N 51°41' E 004°36'0 0.0
2014-Aug-18 21:28N 51°41' E 004°36'0 0.0
2014-Aug-18 20:31N 51°41' E 004°36'0 0.1
2014-Aug-18 19:33N 51°41' E 004°36'6 5.6
2014-Aug-18 18:33N 51°47' E 004°38'8 8.2
2014-Aug-18 17:33N 51°50' E 004°26'4 3.8
2014-Aug-18 16:33N 51°54' E 004°23'1 1.1
2014-Aug-18 15:34N 51°55' E 004°25'0 0.0
2014-Aug-18 14:34N 51°55' E 004°25'0 0.0
2014-Aug-18 13:34N 51°55' E 004°25'0 0.0
2014-Aug-18 12:34N 51°55' E 004°25'0 0.0
2014-Aug-18 11:34N 51°55' E 004°25'0 0.0
2014-Aug-18 10:34N 51°55' E 004°25'0 0.0
2014-Aug-18 09:34N 51°55' E 004°25'0 0.0
2014-Aug-18 08:34N 51°55' E 004°25'0 0.0
2014-Aug-18 07:34N 51°55' E 004°25'0 0.0
2014-Aug-18 06:34N 51°55' E 004°25'0 0.0
2014-Aug-18 05:31N 51°55' E 004°25'0 0.0
2014-Aug-18 04:34N 51°55' E 004°25'0 0.0
2014-Aug-18 03:34N 51°55' E 004°25'0 0.0
2014-Aug-18 02:28N 51°55' E 004°25'0 0.0
2014-Aug-18 01:34N 51°55' E 004°25'0 0.0
2014-Aug-18 00:34N 51°55' E 004°25'0 0.0
2014-Aug-17 18:28N 51°55' E 004°25'0 0.0
2014-Aug-17 17:34N 51°55' E 004°25'0 0.0
2014-Aug-17 16:34N 51°55' E 004°25'0 0.0
2014-Aug-17 15:34N 51°55' E 004°25'0 0.0
2014-Aug-17 14:34N 51°55' E 004°25'0 0.0
2014-Aug-17 13:34N 51°55' E 004°25'0 0.0
2014-Aug-17 12:34N 51°55' E 004°25'0 0.0
2014-Aug-17 11:34N 51°55' E 004°25'0 0.0
2014-Aug-17 10:34N 51°55' E 004°25'0 0.0
2014-Aug-17 09:31N 51°55' E 004°25'0 0.0
2014-Aug-17 08:34N 51°55' E 004°25'0 0.0
2014-Aug-17 07:34N 51°55' E 004°25'0 0.0
2014-Aug-17 06:31N 51°55' E 004°25'0 0.0
2014-Aug-17 05:34N 51°55' E 004°25'0 0.0
2014-Aug-17 04:31N 51°55' E 004°25'0 0.0
2014-Aug-17 03:25N 51°55' E 004°25'0 0.0
2014-Aug-17 02:31N 51°55' E 004°25'0 0.0
2014-Aug-17 01:34N 51°55' E 004°25'0 0.0
2014-Aug-17 00:34N 51°55' E 004°25'0 0.0
2014-Aug-16 23:34N 51°55' E 004°25'0 0.0
2014-Aug-16 22:34N 51°55' E 004°25'1 1.1
2014-Aug-16 21:33N 51°54' E 004°24'8 8.2
2014-Aug-16 20:33N 51°57' E 004°11'10 9.5
2014-Aug-16 19:33N 52°00' E 003°57'5810.6
2014-Aug-16 14:04N 51°39' E 002°29'5 9.1
2014-Aug-16 13:33N 51°35' E 002°24'8 8.4
2014-Aug-16 12:33N 51°29' E 002°16'8 8.1
2014-Aug-16 11:32N 51°22' E 002°09'8 8.1
2014-Aug-16 10:33N 51°15' E 002°04'8 8.5
2014-Aug-16 09:33N 51°10' E 001°53'9 8.8
2014-Aug-16 08:33N 51°04' E 001°43'38 9.1
2014-Aug-16 04:19N 50°32' E 001°08'7 9.3
2014-Aug-16 03:33N 50°28' E 000°59'9 9.3
2014-Aug-16 02:33N 50°25' E 000°45'10 9.8
2014-Aug-16 01:33N 50°23' E 000°30'  

Dump ship's entire track history